Bel Air Beach, Iowa
Current Conditions -  °F | °C
As of 4:35 PM on Sunday 23 Nov 2014 (Local Time) from KSLB Reporting Station
Broken Clouds Broken Clouds  
Wind Chill: 28°   Ceiling: 5500
Heat Index: 39°   Visibility: 10mi
Dew Point: 36°   Wind: 24mph
Humidity: 87%   Direction: 330°NNW
Pressure: 29.48"   Gusts: NA
Location:  42.674°N, 95.1635°W
Report Text: KSLB 232235Z AUTO 33021KT 10SM BKN055 04/02 A2948 RMK AO2
Loading
Personal Weather Stations






























Interactive Weather Map New forecast layout! Learn more

10-Day Weather Forecast

Advertisements
Track Severe Weather on mobile